createdAt,value
2018-12-02T00:04:28.394Z,16.44
2018-12-02T00:10:23.447Z,18.15
2018-12-02T00:16:18.412Z,21.29
2018-12-02T00:22:13.425Z,19.85
2018-12-02T00:28:08.434Z,19.28
2018-12-02T00:34:03.414Z,15.58
2018-12-02T00:39:58.468Z,16.95
2018-12-02T00:45:53.431Z,16.57
2018-12-02T00:51:48.442Z,14.12
2018-12-02T00:57:43.472Z,14.5
2018-12-02T01:03:38.439Z,12.9
2018-12-02T01:09:33.434Z,13.18
2018-12-02T01:15:28.431Z,11.53
2018-12-02T01:21:23.472Z,11.29
2018-12-02T01:27:18.529Z,12.48
2018-12-02T01:33:13.467Z,12.7
2018-12-02T01:39:08.458Z,11.53
2018-12-02T01:45:03.523Z,11.41
2018-12-02T01:50:58.451Z,11.21
2018-12-02T01:56:53.472Z,11.01
2018-12-02T02:02:48.483Z,10.45
2018-12-02T02:08:43.523Z,9.5
2018-12-02T02:14:38.491Z,11.45
2018-12-02T02:20:33.505Z,10
2018-12-02T02:26:28.517Z,9.86
2018-12-02T02:32:23.501Z,11.8
2018-12-02T02:38:18.576Z,10.63
2018-12-02T02:44:13.493Z,10.61
2018-12-02T02:50:08.531Z,11.22
2018-12-02T02:56:03.505Z,10.19
2018-12-02T03:01:58.498Z,10.72
2018-12-02T03:07:53.510Z,10.4
2018-12-02T03:13:48.518Z,10.43
2018-12-02T03:19:43.515Z,11.42
2018-12-02T03:25:38.581Z,12.11
2018-12-02T03:31:33.560Z,10.66
2018-12-02T03:37:28.593Z,11.36
2018-12-02T03:43:23.530Z,11.06
2018-12-02T03:49:18.519Z,10.85
2018-12-02T03:55:13.594Z,11.33
2018-12-02T04:01:08.550Z,11.13
2018-12-02T04:07:03.548Z,10.78
2018-12-02T04:12:58.555Z,10.75
2018-12-02T04:18:53.542Z,10.94
2018-12-02T04:24:48.551Z,10.69
2018-12-02T04:30:43.555Z,10.94
2018-12-02T04:36:38.570Z,10.75
2018-12-02T04:42:33.620Z,8.17
2018-12-02T04:48:28.585Z,11.06
2018-12-02T04:54:23.559Z,11.17
2018-12-02T05:00:18.569Z,9.65
2018-12-02T05:06:13.590Z,9.32
2018-12-02T05:12:08.567Z,10.25
2018-12-02T05:18:03.580Z,10.81
2018-12-02T05:23:58.570Z,11.09
2018-12-02T05:29:53.601Z,10.96
2018-12-02T05:35:48.593Z,9.57
2018-12-02T05:41:43.605Z,10.32
2018-12-02T05:47:38.577Z,10.29
2018-12-02T05:53:33.602Z,10.89
2018-12-02T05:59:28.614Z,11.23
2018-12-02T06:05:23.599Z,10.97
2018-12-02T06:11:18.604Z,10.5
2018-12-02T06:17:13.631Z,10.31
2018-12-02T06:23:08.614Z,10.03
2018-12-02T06:29:03.615Z,9.63
2018-12-02T06:34:58.629Z,9.37
2018-12-02T06:40:53.616Z,8.75
2018-12-02T06:46:48.618Z,9.36
2018-12-02T06:52:43.651Z,8.59
2018-12-02T06:58:38.661Z,9.88
2018-12-02T07:04:33.693Z,9.8
2018-12-02T07:10:28.649Z,10.41
2018-12-02T07:16:23.656Z,9.79
2018-12-02T07:22:18.643Z,9.74
2018-12-02T07:28:13.637Z,9.43
2018-12-02T07:34:08.679Z,9.34
2018-12-02T07:40:03.698Z,10.13
2018-12-02T07:45:58.645Z,11.54
2018-12-02T07:51:53.662Z,11.88
2018-12-02T07:57:48.654Z,11.66
2018-12-02T08:03:43.692Z,12.16
2018-12-02T08:09:38.704Z,9.93
2018-12-02T08:15:33.680Z,14.84
2018-12-02T08:21:28.692Z,20.57
2018-12-02T08:27:23.673Z,16.12
2018-12-02T08:33:18.747Z,11.75
2018-12-02T08:39:13.736Z,12.64
2018-12-02T08:45:08.724Z,14.08
2018-12-02T08:51:03.696Z,12.42
2018-12-02T08:56:58.690Z,13.61
2018-12-02T09:02:53.700Z,16.36
2018-12-02T09:08:48.687Z,17.54
2018-12-02T09:14:43.734Z,18.24
2018-12-02T09:20:38.692Z,19.14
2018-12-02T09:26:33.701Z,16.5
2018-12-02T09:32:28.708Z,14.8
2018-12-02T09:38:23.710Z,17.36
2018-12-02T09:44:18.707Z,17.95
2018-12-02T09:50:13.743Z,16.77
2018-12-02T09:56:08.726Z,16.32
2018-12-02T10:02:03.738Z,14.31
2018-12-02T10:07:58.727Z,15.65
2018-12-02T10:13:53.768Z,16.94
2018-12-02T10:19:48.732Z,14.78
2018-12-02T10:25:43.731Z,14.21
2018-12-02T10:31:38.760Z,13.5
2018-12-02T10:37:33.777Z,13.55
2018-12-02T10:43:28.746Z,14.41
2018-12-02T10:49:23.793Z,15.39
2018-12-02T10:55:18.761Z,18.27
2018-12-02T11:01:13.794Z,19.14
2018-12-02T11:07:08.766Z,18.85
2018-12-02T11:13:03.794Z,16.3
2018-12-02T11:18:58.778Z,17.85
2018-12-02T11:24:53.771Z,18.6
2018-12-02T11:30:48.786Z,26.43
2018-12-02T11:36:43.796Z,19.97
2018-12-02T11:42:38.782Z,17.46
2018-12-02T11:48:33.774Z,17.1
2018-12-02T11:54:28.790Z,14.42
2018-12-02T12:00:23.839Z,16.31
2018-12-02T12:06:18.845Z,16.6
2018-12-02T12:12:13.845Z,14.84
2018-12-02T12:18:08.806Z,15.17
2018-12-02T12:24:03.802Z,14.42
2018-12-02T12:29:58.840Z,14.4
2018-12-02T12:35:53.835Z,14.39
2018-12-02T12:41:48.839Z,12.14
2018-12-02T12:47:43.806Z,13.68
2018-12-02T12:53:38.825Z,13.53
2018-12-02T12:59:33.799Z,13.3
2018-12-02T13:05:28.840Z,13.79
2018-12-02T13:11:23.839Z,13.54
2018-12-02T13:17:18.843Z,14.35
2018-12-02T13:23:13.854Z,15
2018-12-02T13:29:08.860Z,15.63
2018-12-02T13:35:03.847Z,15.97
2018-12-02T13:40:58.844Z,16
2018-12-02T13:46:53.884Z,17.08
2018-12-02T13:52:48.851Z,18.08
2018-12-02T13:58:43.883Z,17.39
2018-12-02T14:04:38.898Z,19.07
2018-12-02T14:10:33.925Z,17.09
2018-12-02T14:16:28.892Z,17.3
2018-12-02T14:22:23.877Z,15.76
2018-12-02T14:28:18.894Z,16.14
2018-12-02T14:34:14.001Z,21.55
2018-12-02T14:40:08.889Z,16.56
2018-12-02T14:46:03.898Z,12.63
2018-12-02T14:51:58.938Z,13.02
2018-12-02T14:57:53.919Z,16.24
2018-12-02T15:03:48.931Z,17.3
2018-12-02T15:09:43.931Z,17.64
2018-12-02T15:15:38.911Z,17.51
2018-12-02T15:21:33.916Z,25.04
2018-12-02T15:27:28.950Z,41.1
2018-12-02T15:33:23.974Z,22.19
2018-12-02T15:39:18.918Z,19.3
2018-12-02T15:45:13.929Z,20.85
2018-12-02T15:51:08.981Z,20.93
2018-12-02T15:57:03.981Z,21.42
2018-12-02T16:02:58.921Z,22.57
2018-12-02T16:08:53.975Z,21.6
2018-12-02T16:14:51.703Z,20.85
2018-12-02T16:20:43.984Z,21.15
2018-12-02T16:26:38.959Z,23.67
2018-12-02T16:32:33.969Z,27.6
2018-12-02T16:38:28.978Z,27.29
2018-12-02T16:44:24.003Z,25.89
2018-12-02T16:50:18.970Z,23.59
2018-12-02T16:56:13.952Z,22.09
2018-12-02T17:02:08.992Z,25.69
2018-12-02T17:08:03.984Z,24.4
2018-12-02T17:13:58.989Z,23.8
2018-12-02T17:19:54.018Z,22.52
2018-12-02T17:25:49.043Z,22.04
2018-12-02T17:31:44.020Z,24.73
2018-12-02T17:37:39.002Z,23.67
2018-12-02T17:43:34.028Z,22.88
2018-12-02T17:49:28.980Z,19.01
2018-12-02T17:55:24.013Z,19.9
2018-12-02T18:01:18.988Z,21.29
2018-12-02T18:07:14.038Z,20.92
2018-12-02T18:13:09.028Z,20.85
2018-12-02T18:19:04.030Z,22.21
2018-12-02T18:24:59.015Z,23.27
2018-12-02T18:30:54.054Z,23.14
2018-12-02T18:36:49.024Z,24.86
2018-12-02T18:42:44.071Z,23.89
2018-12-02T18:48:39.111Z,25.32
2018-12-02T18:54:34.041Z,25.58
2018-12-02T19:00:29.040Z,28.49
2018-12-02T19:06:28.208Z,30.58
2018-12-02T19:12:19.065Z,25.98
2018-12-02T19:18:14.037Z,27.19
2018-12-02T19:24:09.077Z,29.06
2018-12-02T19:30:04.058Z,28.85
2018-12-02T19:35:59.060Z,30.99
2018-12-02T19:41:54.107Z,36.43
2018-12-02T19:47:49.071Z,31.07
2018-12-02T19:53:44.077Z,31.7
2018-12-02T19:59:39.121Z,37.85
2018-12-02T20:05:34.060Z,31.64
2018-12-02T20:11:29.064Z,31.31
2018-12-02T20:17:24.091Z,31.03
2018-12-02T20:23:19.089Z,30.63
2018-12-02T20:29:14.128Z,31.73
2018-12-02T20:35:09.093Z,33.56
2018-12-02T20:41:04.152Z,35.89
2018-12-02T20:46:59.099Z,32.84
2018-12-02T20:52:54.143Z,34.57
2018-12-02T20:58:49.098Z,33.09
2018-12-02T21:04:44.108Z,31.37
2018-12-02T21:10:39.128Z,31.28
2018-12-02T21:16:34.112Z,32.68
2018-12-02T21:22:29.112Z,33.08
2018-12-02T21:28:24.183Z,36.85
2018-12-02T21:34:19.163Z,31.82
2018-12-02T21:40:14.127Z,32.94
2018-12-02T21:46:09.166Z,32.94
2018-12-02T21:52:04.151Z,27.84
2018-12-02T21:57:59.159Z,28.91
2018-12-02T22:03:54.135Z,25.79
2018-12-02T22:09:49.185Z,25.13
2018-12-02T22:15:44.152Z,25.22
2018-12-02T22:21:39.179Z,24.91
2018-12-02T22:27:34.160Z,26.79
2018-12-02T22:33:29.205Z,26.43
2018-12-02T22:39:24.157Z,27.27
2018-12-02T22:45:19.157Z,29.17
2018-12-02T22:51:14.158Z,28.75
2018-12-02T22:57:09.207Z,28.61
2018-12-02T23:03:04.176Z,28.19
2018-12-02T23:08:59.183Z,27.37
2018-12-02T23:14:54.208Z,25.27
2018-12-02T23:20:49.170Z,23.49
2018-12-02T23:26:44.232Z,22.27
2018-12-02T23:32:39.248Z,21.73
2018-12-02T23:38:34.199Z,19.61
2018-12-02T23:44:29.249Z,19.85
2018-12-02T23:50:24.217Z,23.14
2018-12-02T23:56:19.266Z,20.55
